createdAt,value
2022-12-11T00:01:11.780Z,70.87
2022-12-11T00:03:42.488Z,70.80
2022-12-11T00:06:13.788Z,70.69
2022-12-11T00:08:53.748Z,70.85
2022-12-11T00:11:23.237Z,70.87
2022-12-11T00:13:51.617Z,71.00
2022-12-11T00:16:25.221Z,70.97
2022-12-11T00:18:55.752Z,71.04
2022-12-11T00:21:23.913Z,70.99
2022-12-11T00:23:52.387Z,70.90
2022-12-11T00:26:21.064Z,70.99
2022-12-11T00:28:53.762Z,70.92
2022-12-11T00:31:23.089Z,71.08
2022-12-11T00:33:51.503Z,70.98
2022-12-11T00:36:23.422Z,70.83
2022-12-11T00:38:52.318Z,70.79
2022-12-11T00:41:20.737Z,70.97
2022-12-11T00:43:49.074Z,70.95
2022-12-11T00:46:17.275Z,70.91
2022-12-11T00:48:46.505Z,70.80
2022-12-11T00:51:14.558Z,70.72
2022-12-11T00:53:43.806Z,70.51
2022-12-11T00:56:13.386Z,70.41
2022-12-11T00:58:42.262Z,70.50
2022-12-11T01:01:12.489Z,70.45
2022-12-11T01:03:40.788Z,70.61
2022-12-11T01:06:13.186Z,70.52
2022-12-11T01:08:41.261Z,70.38
2022-12-11T01:11:13.262Z,70.56
2022-12-11T01:13:42.233Z,70.72
2022-12-11T01:16:14.225Z,70.78
2022-12-11T01:18:43.009Z,70.82
2022-12-11T01:21:13.499Z,70.91
2022-12-11T01:23:41.535Z,70.94
2022-12-11T01:26:11.743Z,71.16
2022-12-11T01:28:40.662Z,71.28
2022-12-11T01:31:16.942Z,71.69
2022-12-11T01:33:45.651Z,72.02
2022-12-11T01:36:16.960Z,72.35
2022-12-11T01:38:46.510Z,72.63
2022-12-11T01:41:15.334Z,73.03
2022-12-11T01:44:03.965Z,73.06
2022-12-11T01:46:34.683Z,73.26
2022-12-11T01:49:07.569Z,73.63
2022-12-11T01:51:47.000Z,73.90
2022-12-11T01:54:17.625Z,74.79
2022-12-11T01:56:46.822Z,74.82
2022-12-11T01:59:17.984Z,75.38
2022-12-11T02:02:25.638Z,75.34
2022-12-11T02:04:53.737Z,76.07
2022-12-11T02:07:22.011Z,76.80
2022-12-11T02:09:50.504Z,76.77
2022-12-11T02:13:05.219Z,77.04
2022-12-11T02:15:39.716Z,76.91
2022-12-11T02:18:14.077Z,77.07
2022-12-11T02:20:44.607Z,78.13
2022-12-11T02:23:26.615Z,78.47
2022-12-11T02:25:58.283Z,78.77
2022-12-11T02:28:38.349Z,78.22
2022-12-11T02:31:32.736Z,77.98
2022-12-11T02:34:32.507Z,78.30
2022-12-11T02:37:17.782Z,79.02
2022-12-11T02:39:47.714Z,78.95
2022-12-11T02:42:16.666Z,78.99
2022-12-11T02:44:45.369Z,79.19
2022-12-11T02:47:16.720Z,79.02
2022-12-11T02:49:48.421Z,78.99
2022-12-11T02:52:20.396Z,79.10
2022-12-11T02:54:51.021Z,79.31
2022-12-11T02:57:33.639Z,80.04
2022-12-11T03:00:02.214Z,80.03
2022-12-11T03:02:31.068Z,80.67
2022-12-11T03:05:23.443Z,80.73
2022-12-11T03:07:51.587Z,80.87
2022-12-11T03:10:20.415Z,81.16
2022-12-11T03:12:53.719Z,81.15
2022-12-11T03:15:30.346Z,81.23
2022-12-11T03:18:10.043Z,81.44
2022-12-11T03:20:44.365Z,81.39
2022-12-11T03:23:34.810Z,81.65
2022-12-11T03:26:06.691Z,81.61
2022-12-11T03:28:43.698Z,81.51
2022-12-11T03:31:17.657Z,81.17
2022-12-11T03:33:49.527Z,80.94
2022-12-11T03:36:22.336Z,81.28
2022-12-11T03:38:56.473Z,81.48
2022-12-11T03:41:28.132Z,81.44
2022-12-11T03:43:58.810Z,81.30
2022-12-11T03:46:37.016Z,81.37
2022-12-11T03:49:16.159Z,81.39
2022-12-11T03:51:46.829Z,81.65
2022-12-11T03:54:17.601Z,81.59
2022-12-11T03:56:48.746Z,81.51
2022-12-11T03:59:16.878Z,81.96
2022-12-11T04:01:45.303Z,82.08
2022-12-11T04:04:13.541Z,83.48
2022-12-11T04:06:41.836Z,83.20
2022-12-11T04:09:09.779Z,83.76
2022-12-11T04:11:38.460Z,82.99
2022-12-11T04:14:30.479Z,82.81
2022-12-11T04:17:00.554Z,82.75
2022-12-11T04:19:46.748Z,82.65
2022-12-11T04:22:36.425Z,82.52
2022-12-11T04:25:07.305Z,82.30
2022-12-11T04:27:50.806Z,82.76
2022-12-11T04:30:29.323Z,82.84
2022-12-11T04:33:00.739Z,82.81
2022-12-11T04:35:29.248Z,82.78
2022-12-11T04:37:58.590Z,82.92
2022-12-11T04:40:26.870Z,83.16
2022-12-11T04:42:54.885Z,83.48
2022-12-11T04:45:23.115Z,84.05
2022-12-11T04:47:51.516Z,84.08
2022-12-11T04:50:19.499Z,83.38
2022-12-11T04:53:12.742Z,84.49
2022-12-11T04:55:44.143Z,85.30
2022-12-11T04:58:12.076Z,84.71
2022-12-11T05:00:41.558Z,83.48
2022-12-11T05:03:10.396Z,84.45
2022-12-11T05:05:38.973Z,84.36
2022-12-11T05:08:08.261Z,84.16
2022-12-11T05:10:36.297Z,83.93
2022-12-11T05:13:04.476Z,84.87
2022-12-11T05:15:32.350Z,85.14
2022-12-11T05:18:01.075Z,85.42
2022-12-11T05:20:29.052Z,84.76
2022-12-11T05:22:57.414Z,84.71
2022-12-11T05:25:25.931Z,84.58
2022-12-11T05:27:53.891Z,85.04
2022-12-11T05:30:21.862Z,85.52
2022-12-11T05:32:49.830Z,85.89
2022-12-11T05:35:17.842Z,85.59
2022-12-11T05:37:45.827Z,85.76
2022-12-11T05:40:14.113Z,85.21
2022-12-11T05:42:42.272Z,86.60
2022-12-11T05:45:11.199Z,86.13
2022-12-11T05:47:39.453Z,86.42
2022-12-11T05:50:08.047Z,86.09
2022-12-11T05:52:36.334Z,86.09
2022-12-11T05:55:04.525Z,86.67
2022-12-11T05:57:32.790Z,87.26
2022-12-11T06:00:00.948Z,86.86
2022-12-11T06:02:28.977Z,86.32
2022-12-11T06:04:57.082Z,86.94
2022-12-11T06:07:25.087Z,86.52
2022-12-11T06:09:53.069Z,86.89
2022-12-11T06:12:21.568Z,86.53
2022-12-11T06:14:49.863Z,86.44
2022-12-11T06:17:18.072Z,86.44
2022-12-11T06:19:46.004Z,86.31
2022-12-11T06:22:14.145Z,87.29
2022-12-11T06:24:42.126Z,87.11
2022-12-11T06:27:10.268Z,86.59
2022-12-11T06:29:38.292Z,86.27
2022-12-11T06:32:07.130Z,86.62
2022-12-11T06:34:35.307Z,86.86
2022-12-11T06:37:03.557Z,86.21
2022-12-11T06:39:31.888Z,86.15
2022-12-11T06:42:00.110Z,86.12
2022-12-11T06:44:28.456Z,84.61
2022-12-11T06:46:56.539Z,83.75
2022-12-11T06:49:24.701Z,82.67
2022-12-11T06:51:57.829Z,80.76
2022-12-11T06:54:27.517Z,80.13
2022-12-11T06:56:55.618Z,80.05
2022-12-11T06:59:23.681Z,78.25
2022-12-11T07:01:52.274Z,77.89
2022-12-11T07:04:20.519Z,77.55
2022-12-11T07:06:49.337Z,76.74
2022-12-11T07:09:17.230Z,75.42
2022-12-11T07:11:45.490Z,75.40
2022-12-11T07:14:13.573Z,74.35
2022-12-11T07:16:41.668Z,73.36
2022-12-11T07:19:09.662Z,71.86
2022-12-11T07:21:37.665Z,72.13
2022-12-11T07:24:06.189Z,71.91
2022-12-11T07:26:34.116Z,71.26
2022-12-11T07:29:02.187Z,71.72
2022-12-11T07:31:30.535Z,71.29
2022-12-11T07:34:02.029Z,71.14
2022-12-11T07:36:30.655Z,70.97
2022-12-11T07:38:59.622Z,70.07
2022-12-11T07:41:29.017Z,69.67
2022-12-11T07:43:56.976Z,70.09
2022-12-11T07:46:28.018Z,69.96
2022-12-11T07:48:55.966Z,70.07
2022-12-11T07:51:29.886Z,70.14
2022-12-11T07:54:03.214Z,70.39
2022-12-11T07:56:32.285Z,69.94
2022-12-11T07:59:06.215Z,68.97
2022-12-11T08:01:36.710Z,68.62
2022-12-11T08:04:07.269Z,67.91
2022-12-11T08:06:38.267Z,68.16
2022-12-11T08:09:08.662Z,68.73
2022-12-11T08:11:37.012Z,68.70
2022-12-11T08:14:06.725Z,68.99
2022-12-11T08:16:34.916Z,68.44
2022-12-11T08:19:03.071Z,68.35
2022-12-11T08:21:31.049Z,68.96
2022-12-11T08:23:59.034Z,68.81
2022-12-11T08:26:29.624Z,68.58
2022-12-11T08:28:58.507Z,68.47
2022-12-11T08:31:27.228Z,68.57
2022-12-11T08:33:56.771Z,68.83
2022-12-11T08:36:25.471Z,68.84
2022-12-11T08:38:55.429Z,68.84
2022-12-11T08:41:29.342Z,68.76
2022-12-11T08:44:00.542Z,69.01
2022-12-11T08:46:32.640Z,69.43
2022-12-11T08:49:00.879Z,69.85
2022-12-11T08:51:31.004Z,69.86
2022-12-11T08:54:01.178Z,70.14
2022-12-11T08:56:30.141Z,70.53
2022-12-11T08:59:01.175Z,70.61
2022-12-11T09:01:30.083Z,70.71
2022-12-11T09:03:59.504Z,70.79
2022-12-11T09:06:29.523Z,70.97
2022-12-11T09:09:00.254Z,71.03
2022-12-11T09:11:35.487Z,71.31
2022-12-11T09:14:07.932Z,71.26
2022-12-11T09:16:40.884Z,71.45
2022-12-11T09:19:14.117Z,71.48
2022-12-11T09:21:43.567Z,71.47
2022-12-11T09:24:13.006Z,71.53
2022-12-11T09:26:42.051Z,71.82
2022-12-11T09:29:11.039Z,71.67
2022-12-11T09:31:38.941Z,71.71
2022-12-11T09:34:08.931Z,71.68
2022-12-11T09:36:38.713Z,71.70
2022-12-11T09:39:09.165Z,71.46
2022-12-11T09:41:46.731Z,71.25
2022-12-11T09:44:30.515Z,70.97
2022-12-11T09:46:59.186Z,70.80
2022-12-11T09:49:31.938Z,70.60
2022-12-11T09:52:21.164Z,70.40
2022-12-11T09:55:01.017Z,70.80
2022-12-11T09:57:32.001Z,71.22
2022-12-11T10:00:09.626Z,70.15
2022-12-11T10:03:02.509Z,68.87
2022-12-11T10:05:45.373Z,68.10
2022-12-11T10:08:25.695Z,68.52
2022-12-11T10:11:15.251Z,67.69
2022-12-11T10:13:50.470Z,67.86
2022-12-11T10:16:45.825Z,67.93
2022-12-11T10:19:34.810Z,68.02
2022-12-11T10:22:03.754Z,67.81
2022-12-11T10:27:33.173Z,66.43
2022-12-11T10:30:34.837Z,66.43
2022-12-11T10:33:23.372Z,66.72
2022-12-11T10:35:54.882Z,67.06
2022-12-11T10:38:42.761Z,67.64
2022-12-11T10:41:14.416Z,67.30
2022-12-11T10:43:46.281Z,66.79
2022-12-11T10:46:26.386Z,66.40
2022-12-11T10:49:00.567Z,66.13
2022-12-11T10:51:32.026Z,65.68
2022-12-11T10:54:08.654Z,64.35
2022-12-11T10:56:38.180Z,64.77
2022-12-11T10:59:07.069Z,64.22
2022-12-11T11:01:36.037Z,64.40
2022-12-11T11:04:19.484Z,64.76
2022-12-11T11:06:49.203Z,64.27
2022-12-11T11:09:34.453Z,63.46
2022-12-11T11:12:07.712Z,63.08
2022-12-11T11:14:36.151Z,63.31
2022-12-11T11:17:04.219Z,63.00
2022-12-11T11:19:36.889Z,62.91
2022-12-11T11:22:14.297Z,62.98
2022-12-11T11:25:02.767Z,63.39
2022-12-11T11:27:39.620Z,63.16
2022-12-11T11:30:30.318Z,63.77
2022-12-11T11:33:04.736Z,63.43
2022-12-11T11:35:33.253Z,63.55
2022-12-11T11:38:18.779Z,62.81
2022-12-11T11:41:11.579Z,62.75
2022-12-11T11:43:46.679Z,61.88
2022-12-11T11:46:20.148Z,60.69
2022-12-11T11:49:12.947Z,61.21
2022-12-11T11:51:51.564Z,60.49
2022-12-11T11:54:39.394Z,59.96
2022-12-11T11:57:56.730Z,59.94
2022-12-11T12:00:33.293Z,58.56
2022-12-11T12:03:18.566Z,58.84
2022-12-11T12:06:00.635Z,58.71
2022-12-11T12:08:37.804Z,58.13
2022-12-11T12:11:22.724Z,59.49
2022-12-11T12:13:54.176Z,58.92
2022-12-11T12:16:54.207Z,58.29
2022-12-11T12:19:22.476Z,57.60
2022-12-11T12:21:56.054Z,58.24
2022-12-11T12:24:55.307Z,58.28
2022-12-11T12:27:58.375Z,58.58
2022-12-11T12:30:37.038Z,58.97
2022-12-11T12:33:04.958Z,59.63
2022-12-11T12:35:36.395Z,60.05
2022-12-11T12:38:23.685Z,60.38
2022-12-11T12:41:07.149Z,60.73
2022-12-11T12:44:14.790Z,60.84
2022-12-11T12:46:56.153Z,60.79
2022-12-11T12:49:43.142Z,60.92
2022-12-11T12:52:19.868Z,61.48
2022-12-11T12:55:12.083Z,62.10
2022-12-11T12:57:45.843Z,62.20
2022-12-11T13:00:14.820Z,61.97
2022-12-11T13:02:53.883Z,61.95
2022-12-11T13:05:28.240Z,62.25
2022-12-11T13:08:02.646Z,63.00
2022-12-11T13:10:30.667Z,63.29
2022-12-11T13:13:00.610Z,63.43
2022-12-11T13:15:33.689Z,63.58
2022-12-11T13:18:05.379Z,63.66
2022-12-11T13:20:34.938Z,63.76
2022-12-11T13:23:06.279Z,63.67
2022-12-11T13:25:59.564Z,63.74
2022-12-11T13:28:31.302Z,63.98
2022-12-11T13:31:07.782Z,63.97
2022-12-11T13:33:43.235Z,64.10
2022-12-11T13:36:17.744Z,64.35
2022-12-11T13:39:11.032Z,64.35
2022-12-11T13:41:40.313Z,64.41
2022-12-11T13:44:18.463Z,64.66
2022-12-11T13:46:46.727Z,65.02
2022-12-11T13:49:23.553Z,65.08
2022-12-11T13:52:00.684Z,65.24
2022-12-11T13:54:34.200Z,65.54
2022-12-11T13:57:16.537Z,65.64
2022-12-11T13:59:59.721Z,65.53
2022-12-11T14:02:35.687Z,65.59
2022-12-11T14:05:07.430Z,65.78
2022-12-11T14:07:40.811Z,66.08
2022-12-11T14:10:20.134Z,66.17
2022-12-11T14:12:59.630Z,65.98
2022-12-11T14:15:29.963Z,66.29
2022-12-11T14:17:59.459Z,66.58
2022-12-11T14:20:30.719Z,66.96
2022-12-11T14:23:19.673Z,67.09
2022-12-11T14:26:02.858Z,67.10
2022-12-11T14:28:42.356Z,67.27
2022-12-11T14:31:16.119Z,67.33
2022-12-11T14:33:48.247Z,67.39
2022-12-11T14:36:17.712Z,67.68
2022-12-11T14:38:49.754Z,68.11
2022-12-11T14:41:41.216Z,68.12
2022-12-11T14:44:15.726Z,68.20
2022-12-11T14:46:48.434Z,68.28
2022-12-11T14:50:10.678Z,68.45
2022-12-11T14:52:44.370Z,68.68
2022-12-11T14:55:21.403Z,69.20
2022-12-11T14:57:55.154Z,68.87
2022-12-11T15:00:25.802Z,68.54
2022-12-11T15:03:03.735Z,68.51
2022-12-11T15:05:40.544Z,68.47
2022-12-11T15:08:12.755Z,68.68
2022-12-11T15:11:00.798Z,68.35
2022-12-11T15:13:29.129Z,68.58
2022-12-11T15:15:59.293Z,68.61
2022-12-11T15:18:33.023Z,68.84
2022-12-11T15:21:07.153Z,68.60
2022-12-11T15:23:55.613Z,68.76
2022-12-11T15:26:32.749Z,68.95
2022-12-11T15:29:03.305Z,69.13
2022-12-11T15:31:35.193Z,69.25
2022-12-11T15:34:04.438Z,69.68
2022-12-11T15:36:32.746Z,69.75
2022-12-11T15:39:02.013Z,69.77
2022-12-11T15:41:33.520Z,69.75
2022-12-11T15:44:04.195Z,69.97
2022-12-11T15:46:36.563Z,70.06
2022-12-11T15:49:13.667Z,70.12
2022-12-11T15:51:43.327Z,70.24
2022-12-11T15:54:11.866Z,70.57
2022-12-11T15:57:07.878Z,70.56
2022-12-11T15:59:36.492Z,70.75
2022-12-11T16:02:11.880Z,70.98
2022-12-11T16:04:41.130Z,71.05
2022-12-11T16:07:22.791Z,71.29
2022-12-11T16:09:52.564Z,71.30
2022-12-11T16:12:20.884Z,71.40
2022-12-11T16:14:49.054Z,71.45
2022-12-11T16:17:17.646Z,71.78
2022-12-11T16:19:46.121Z,71.55
2022-12-11T16:22:14.581Z,71.72
2022-12-11T16:24:43.518Z,71.83
2022-12-11T16:27:21.439Z,72.01
2022-12-11T16:29:51.305Z,71.71
2022-12-11T16:32:22.229Z,71.62
2022-12-11T16:34:51.174Z,71.87
2022-12-11T16:37:19.646Z,71.94
2022-12-11T16:39:48.576Z,72.09
2022-12-11T16:42:17.591Z,72.05
2022-12-11T16:44:45.700Z,72.20
2022-12-11T16:47:14.004Z,72.16
2022-12-11T16:49:45.404Z,72.25
2022-12-11T16:52:17.583Z,72.53
2022-12-11T16:54:51.648Z,72.58
2022-12-11T16:57:19.734Z,72.91
2022-12-11T16:59:48.062Z,73.04
2022-12-11T17:02:16.499Z,73.21
2022-12-11T17:04:52.106Z,73.01
2022-12-11T17:07:21.717Z,73.26
2022-12-11T17:09:50.607Z,73.40
2022-12-11T17:12:19.261Z,73.55
2022-12-11T17:14:47.539Z,74.06
2022-12-11T17:17:15.535Z,73.86
2022-12-11T17:19:43.804Z,74.05
2022-12-11T17:22:12.549Z,74.22
2022-12-11T17:24:40.670Z,74.43
2022-12-11T17:27:08.745Z,74.65
2022-12-11T17:29:36.803Z,74.52
2022-12-11T17:32:05.412Z,74.52
2022-12-11T17:34:38.058Z,74.70
2022-12-11T17:37:06.606Z,74.76
2022-12-11T17:39:34.836Z,74.55
2022-12-11T17:42:03.122Z,74.69
2022-12-11T17:44:31.303Z,74.46
2022-12-11T17:46:59.264Z,74.58
2022-12-11T17:49:27.646Z,74.81
2022-12-11T17:51:55.876Z,74.46
2022-12-11T17:54:24.412Z,74.09
2022-12-11T17:56:52.493Z,74.20
2022-12-11T17:59:20.483Z,74.13
2022-12-11T18:01:48.757Z,73.85
2022-12-11T18:04:16.893Z,73.66
2022-12-11T18:06:44.780Z,73.61
2022-12-11T18:09:12.796Z,73.69
2022-12-11T18:11:42.466Z,73.56
2022-12-11T18:14:16.701Z,73.46
2022-12-11T18:16:45.621Z,73.43
2022-12-11T18:19:14.683Z,73.52
2022-12-11T18:21:45.861Z,73.30
2022-12-11T18:24:14.433Z,73.02
2022-12-11T18:26:45.576Z,72.78
2022-12-11T18:29:14.685Z,72.89
2022-12-11T18:31:43.379Z,72.82
2022-12-11T18:34:11.690Z,72.76
2022-12-11T18:36:40.797Z,72.80
2022-12-11T18:39:08.916Z,72.72
2022-12-11T18:41:36.988Z,72.78
2022-12-11T18:44:09.751Z,73.02
2022-12-11T18:46:39.715Z,72.69
2022-12-11T18:49:08.197Z,72.74
2022-12-11T18:51:36.168Z,72.90
2022-12-11T18:54:04.739Z,72.93
2022-12-11T18:56:33.292Z,72.99
2022-12-11T18:59:02.573Z,73.03
2022-12-11T19:01:33.755Z,73.06
2022-12-11T19:04:06.531Z,72.85
2022-12-11T19:06:37.173Z,72.65
2022-12-11T19:09:06.850Z,72.75
2022-12-11T19:11:36.341Z,72.92
2022-12-11T19:14:07.422Z,72.87
2022-12-11T19:16:48.033Z,73.02
2022-12-11T19:19:19.871Z,73.15
2022-12-11T19:21:49.022Z,73.05
2022-12-11T19:24:20.223Z,72.98
2022-12-11T19:26:48.892Z,73.21
2022-12-11T19:29:42.594Z,73.15
2022-12-11T19:32:10.911Z,73.01
2022-12-11T19:34:38.786Z,72.98
2022-12-11T19:37:07.321Z,72.96
2022-12-11T19:39:39.026Z,73.05
2022-12-11T19:42:07.525Z,73.22
2022-12-11T19:44:35.764Z,73.35
2022-12-11T19:47:04.719Z,73.36
2022-12-11T19:49:33.436Z,73.46
2022-12-11T19:52:01.706Z,73.58
2022-12-11T19:54:29.699Z,73.43
2022-12-11T19:56:57.863Z,73.34
2022-12-11T19:59:26.229Z,73.15
2022-12-11T20:01:54.939Z,72.58
2022-12-11T20:04:23.372Z,72.51
2022-12-11T20:06:51.622Z,72.66
2022-12-11T20:09:19.810Z,72.73
2022-12-11T20:11:48.015Z,72.75
2022-12-11T20:14:25.495Z,72.61
2022-12-11T20:17:11.368Z,72.61
2022-12-11T20:19:42.572Z,72.63
2022-12-11T20:22:11.107Z,72.62
2022-12-11T20:24:39.395Z,72.75
2022-12-11T20:27:07.574Z,72.70
2022-12-11T20:29:35.848Z,72.83
2022-12-11T20:32:03.904Z,72.89
2022-12-11T20:34:32.023Z,72.68
2022-12-11T20:37:01.406Z,72.55
2022-12-11T20:39:29.647Z,72.60
2022-12-11T20:41:57.935Z,72.21
2022-12-11T20:44:26.121Z,72.09
2022-12-11T20:46:54.705Z,71.92
2022-12-11T20:49:22.727Z,72.12
2022-12-11T20:51:50.826Z,72.35
2022-12-11T20:54:18.890Z,72.26
2022-12-11T20:56:46.978Z,72.02
2022-12-11T20:59:15.354Z,72.17
2022-12-11T21:01:44.508Z,72.43
2022-12-11T21:04:12.722Z,72.31
2022-12-11T21:06:42.173Z,72.05
2022-12-11T21:09:17.952Z,72.07
2022-12-11T21:11:46.357Z,72.23
2022-12-11T21:14:15.968Z,72.37
2022-12-11T21:16:44.299Z,72.61
2022-12-11T21:19:17.030Z,72.66
2022-12-11T21:21:46.649Z,72.63
2022-12-11T21:24:20.846Z,72.82
2022-12-11T21:26:50.023Z,73.00
2022-12-11T21:29:18.701Z,73.04
2022-12-11T21:31:47.059Z,73.08
2022-12-11T21:34:19.397Z,73.07
2022-12-11T21:36:54.970Z,73.05
2022-12-11T21:39:24.984Z,73.14
2022-12-11T21:41:54.134Z,73.21
2022-12-11T21:47:11.096Z,72.81
2022-12-11T21:49:39.268Z,72.77
2022-12-11T21:52:08.880Z,72.72
2022-12-11T21:54:37.470Z,72.70
2022-12-11T21:57:05.941Z,72.79
2022-12-11T21:59:34.667Z,72.75
2022-12-11T22:02:02.852Z,72.77
2022-12-11T22:04:30.906Z,72.83
2022-12-11T22:06:59.204Z,72.75
2022-12-11T22:09:27.213Z,72.70
2022-12-11T22:11:58.598Z,72.71
2022-12-11T22:14:27.314Z,72.57
2022-12-11T22:16:55.841Z,72.63
2022-12-11T22:19:27.743Z,72.54
2022-12-11T22:21:59.026Z,72.22
2022-12-11T22:24:27.036Z,72.04
2022-12-11T22:26:55.434Z,71.90
2022-12-11T22:29:24.088Z,71.96
2022-12-11T22:31:53.487Z,71.94
2022-12-11T22:34:23.117Z,71.99
2022-12-11T22:36:51.455Z,71.99
2022-12-11T22:39:20.094Z,71.84
2022-12-11T22:41:48.775Z,71.75
2022-12-11T22:44:20.267Z,71.83
2022-12-11T22:46:50.405Z,72.05
2022-12-11T22:49:20.219Z,72.02
2022-12-11T22:51:49.167Z,71.90
2022-12-11T22:54:17.286Z,71.94
2022-12-11T22:56:46.125Z,71.73
2022-12-11T22:59:15.676Z,71.82
2022-12-11T23:01:44.067Z,71.72
2022-12-11T23:04:12.565Z,71.67
2022-12-11T23:06:40.716Z,71.69
2022-12-11T23:09:09.047Z,71.53
2022-12-11T23:11:38.981Z,71.30
2022-12-11T23:14:11.241Z,71.30
2022-12-11T23:16:39.452Z,71.19
2022-12-11T23:19:07.583Z,71.17
2022-12-11T23:21:36.729Z,71.07
2022-12-11T23:24:05.384Z,71.19
2022-12-11T23:26:34.270Z,71.03
2022-12-11T23:29:04.040Z,71.22
2022-12-11T23:31:34.669Z,71.45
2022-12-11T23:34:02.753Z,71.40
2022-12-11T23:36:31.313Z,71.43
2022-12-11T23:38:59.260Z,71.42
2022-12-11T23:41:27.307Z,71.48
2022-12-11T23:43:55.275Z,71.70
2022-12-11T23:46:24.716Z,71.81
2022-12-11T23:48:55.363Z,71.85
2022-12-11T23:51:25.791Z,71.87
2022-12-11T23:53:54.483Z,71.71
2022-12-11T23:56:28.569Z,71.73
2022-12-11T23:58:57.456Z,71.77
